EGBB

Details ICAO EGBB (BHX)
Name Birmingham
Region United Kingdom
Timezone Europe/London (UTC+1.0)
Plans Departing 5379
Arriving 3651
Stats Elevation 338 ft / 103 m (AMSL)
Location 52.454300° -1.748520°
Runways 1
Magnetic Variation 0.631° W
Sunrise 2021-04-14 05:12:33 UTC / 2021-04-14 06:12:33 Local
Sunset 2021-04-14 19:04:07 UTC / 2021-04-14 20:04:07 Local
Advertisement - Login to hide

Runways

ID Width Length Bearing (true/mag) Surface Threshold Overrun Markings Lighting
15 148 ft / 45 m 9,999 ft / 3,048 m 145.88° / 146.51° ASPHALT 922 ft / 281 m 0 ft / 0 m PREC-APP CENTERLINE EDGE THRESHOLD CALVERT-ILS REIL-OMNI
33 148 ft / 45 m 9,999 ft / 3,048 m 325.90° / 326.53° ASPHALT 1,421 ft / 433 m 0 ft / 0 m PREC-APP CENTERLINE EDGE THRESHOLD CALVERT-ILS REIL-OMNI

Approach Navaids

Runway Type Ident Frequency Range Bearing (true/mag) Slope Elevation
15 LOC-ILS IBIR 110.10 MHz 18 nm / 33 km 145.90° / 146.53° - 338 ft / 103 m (AMSL)
15 GS IBIR 110.10 MHz 10 nm / 19 km 145.90° / 146.53° 3.00° 338 ft / 103 m (AMSL)
15 DME IBIR 110.10 MHz 18 nm / 33 km - - 349 ft / 106 m (AMSL)
33 DME IBM 110.10 MHz 18 nm / 33 km - - 327 ft / 100 m (AMSL)
33 GS IBM 110.10 MHz 10 nm / 19 km 325.90° / 326.53° 3.00° 338 ft / 103 m (AMSL)
33 LOC-ILS IBM 110.10 MHz 18 nm / 33 km 325.90° / 326.53° - 338 ft / 103 m (AMSL)

Map

Weather


0- 5 10 15 20 25 30 35+ Temperature / °C

Clouds and Precipitation
Forecast for 2021-03-22 12:00 UTC. Updated 23 days ago

Ground ~20,000 ft ~40,000 ft Winds

METAR

EGBB 142020Z 09007KT CAVOK 06/M02 Q1033

TAF

TAF EGBB 141656Z 1418/1518 05005KT 9999 FEW045= TAF EGFF 141657Z 1418/1518 05007KT 9999 FEW040 PROB30 TEMPO 1418/1420 8000 SHRA

Frequencies

Approach 118.05 MHz Birmingham Radar
Recorded 136.02 MHz Birmingham Information
Approach 131.00 MHz Birmingham Director
Ground 121.80 MHz Birmingham Ground
Tower 118.30 MHz Birmingham Tower
Approach 118.05 MHz Birmingham Approach
Warning: Do not use this data for real-world aviation or navigation. No guarantee of current accuracy is given.